Star City, IN (46985)

8:35 AM EDT on September 16, 2014 (GMT -0400)
Leroy's BarnYard | Change Station
CLOSE
Current Station
Personal Weather Station
Location: Kewanna, IN
Elevation: 758 ft
Nearby Weather Stations

Elev 758 ft 40.99 °N, 86.35 °W | Updated 57 seconds ago

Fog
Fog
48.3 °F
Feels Like 48 °F
N
0.0
Wind Variable Wind from NNE
Gusts 4.0 mph

Today
High -- | Low -- °F
--% Chance of Precip.
Yesterday
High -- | Low -- °F
Precip. -- in
7:27 AM 7:53 PM
Last Quarter, 46% visible
Pressure 30.21 in
Visibility 0.5 miles
Clouds
Windchill 48 °F
Dew Point 45 °F
Humidity 88%
Rainfall 0.00 in
Snow Depth Not available.
UV Not available.
Pollen 5.60 out of 12
Air Quality Not available.
Flu Activity Not available.
METAR KGGP 161215Z AUTO 00000KT 1/2SM FG VV005 08/07 A3021 RMK AO2

More Conditions Fewer Conditions

Pressure 30.21 in
Visibility 0.5 miles
Clouds
Windchill 48 °F
Dew Point 45 °F
Humidity 88%
Rainfall 0.00 in
Snow Depth Not available.
UV Not available.
Pollen 5.60 out of 12
Air Quality Not available.
Flu Activity Not available.
METAR KGGP 161215Z AUTO 00000KT 1/2SM FG VV005 08/07 A3021 RMK AO2

More Conditions Fewer Conditions

10-Day Weather Forecast

Almanac

Astronomy

Sep. 16, 2014 Rise Set
Actual Time 7:27 AM EDT 7:53 PM EDT
Civil Twilight 7:00 AM EDT 8:20 PM EDT
Nautical Twilight 6:27 AM EDT 8:53 PM EDT
Astronomical Twilight 5:54 AM EDT 9:26 PM EDT
Moon 12:35 AM EDT 3:18 PM EDT
Length of Visible Light 13h 20m
Length of Day
12h 25m
Tomorrow will be 2m 41s shorter.
Last Quarter, 46% of the Moon is Illuminated
Today
Last Quarter
Sep 24
New
Oct 1
First Quarter
Oct 8
Full
Oct 15
Last Quarter

Today's Extremes

State Highs State Lows

Community

WunderPhotos

Upload Photos

1,753,754 photos uploaded!

Nearby

Snow Depth

Station Depth Elevation
No new snow has been reported.

Earthquake Activity

City Distance Mag. Time & Date
No recent earthquake activity has been reported nearby.
Minimum magnitude displayed is 2.5.

Coastal Water Temperatures

Place Temperature
No Stations Reporting

Nearby Weather Stations